createdAt,value
2022-09-17T00:01:40.619Z,94821.28
2022-09-17T00:04:09.352Z,94818.47
2022-09-17T00:06:39.149Z,94826.00
2022-09-17T00:09:08.584Z,94820.13
2022-09-17T00:11:39.908Z,94814.75
2022-09-17T00:14:12.805Z,94822.50
2022-09-17T00:16:44.039Z,94831.13
2022-09-17T00:19:15.743Z,94824.94
2022-09-17T00:21:45.628Z,94817.50
2022-09-17T00:24:15.587Z,94827.72
2022-09-17T00:26:44.472Z,94823.47
2022-09-17T00:29:13.611Z,94791.28
2022-09-17T00:31:42.050Z,94816.97
2022-09-17T00:34:12.048Z,94802.06
2022-09-17T00:36:41.471Z,94820.22
2022-09-17T00:39:15.761Z,94817.59
2022-09-17T00:41:45.020Z,94801.47
2022-09-17T00:44:43.106Z,94813.28
2022-09-17T00:47:18.617Z,94823.78
2022-09-17T00:49:48.202Z,94821.94
2022-09-17T00:52:21.479Z,94805.94
2022-09-17T00:54:56.335Z,94818.19
2022-09-17T00:57:25.736Z,94821.44
2022-09-17T00:59:54.440Z,94822.53
2022-09-17T01:02:23.154Z,94821.94
2022-09-17T01:04:51.576Z,94827.91
2022-09-17T01:07:40.869Z,94827.91
2022-09-17T01:10:20.464Z,94802.34
2022-09-17T01:13:03.320Z,94818.63
2022-09-17T01:15:38.111Z,94830.00
2022-09-17T01:18:21.964Z,94802.38
2022-09-17T01:21:34.292Z,94823.16
2022-09-17T01:24:32.887Z,94786.44
2022-09-17T01:27:28.443Z,94819.78
2022-09-17T01:30:18.433Z,94821.59
2022-09-17T01:32:54.591Z,94819.47
2022-09-17T01:35:29.244Z,94820.09
2022-09-17T01:38:07.190Z,94815.78
2022-09-17T01:40:42.523Z,94820.09
2022-09-17T01:43:17.991Z,94816.34
2022-09-17T01:45:52.479Z,94806.59
2022-09-17T01:48:25.580Z,94795.13
2022-09-17T01:50:57.328Z,94817.59
2022-09-17T01:53:30.724Z,94785.06
2022-09-17T01:56:01.172Z,94819.53
2022-09-17T01:58:33.823Z,94822.53
2022-09-17T02:01:06.697Z,94826.53
2022-09-17T02:03:42.283Z,94811.53
2022-09-17T02:06:16.848Z,94820.53
2022-09-17T02:08:50.699Z,94823.72
2022-09-17T02:11:20.968Z,94815.47
2022-09-17T02:13:55.087Z,94821.97
2022-09-17T02:16:27.775Z,94825.16
2022-09-17T02:19:04.952Z,94822.63
2022-09-17T02:21:42.400Z,94741.97
2022-09-17T02:24:18.975Z,94825.59
2022-09-17T02:26:53.592Z,94831.38
2022-09-17T02:29:28.112Z,94830.94
2022-09-17T02:31:56.906Z,94825.38
2022-09-17T02:34:29.557Z,94820.22
2022-09-17T02:36:59.714Z,94820.91
2022-09-17T02:39:29.356Z,94815.28
2022-09-17T02:42:10.520Z,94789.94
2022-09-17T02:44:48.120Z,94784.38
2022-09-17T02:47:35.031Z,94821.53
2022-09-17T02:50:16.289Z,94785.28
2022-09-17T02:52:58.047Z,94824.03
2022-09-17T02:55:34.716Z,94783.97
2022-09-17T02:58:10.716Z,94818.94
2022-09-17T03:00:39.243Z,94821.44
2022-09-17T03:03:13.978Z,94818.94
2022-09-17T03:05:44.603Z,94815.00
2022-09-17T03:08:15.785Z,94810.13
2022-09-17T03:10:44.060Z,94810.69
2022-09-17T03:13:12.397Z,94806.38
2022-09-17T03:15:40.767Z,94814.38
2022-09-17T03:18:09.103Z,94775.91
2022-09-17T03:20:37.531Z,94813.22
2022-09-17T03:23:07.318Z,94818.66
2022-09-17T03:25:35.854Z,94814.94
2022-09-17T03:28:04.404Z,94815.69
2022-09-17T03:30:32.756Z,94820.78
2022-09-17T03:33:01.123Z,94829.69
2022-09-17T03:35:29.616Z,94823.97
2022-09-17T03:37:58.312Z,94833.34
2022-09-17T03:40:28.438Z,94827.22
2022-09-17T03:42:57.470Z,94831.56
2022-09-17T03:45:25.860Z,94830.47
2022-09-17T03:47:54.177Z,94831.47
2022-09-17T03:50:22.492Z,94844.97
2022-09-17T03:52:50.931Z,94806.69
2022-09-17T03:55:19.383Z,94833.59
2022-09-17T03:57:49.122Z,94839.78
2022-09-17T04:00:18.119Z,94840.34
2022-09-17T04:02:46.590Z,94840.34
2022-09-17T04:05:15.100Z,94842.22
2022-09-17T04:07:43.572Z,94829.69
2022-09-17T04:10:12.068Z,94842.13
2022-09-17T04:12:41.008Z,94850.75
2022-09-17T04:15:11.905Z,94847.84
2022-09-17T04:17:40.343Z,94848.63
2022-09-17T04:20:09.359Z,94862.59
2022-09-17T04:22:37.738Z,94863.28
2022-09-17T04:25:06.755Z,94860.91
2022-09-17T04:27:35.120Z,94828.88
2022-09-17T04:30:03.537Z,94859.41
2022-09-17T04:32:33.316Z,94843.41
2022-09-17T04:35:01.706Z,94862.06
2022-09-17T04:37:30.031Z,94843.34
2022-09-17T04:39:58.496Z,94862.06
2022-09-17T04:42:27.104Z,94864.72
2022-09-17T04:44:55.460Z,94864.22
2022-09-17T04:47:23.781Z,94872.41
2022-09-17T04:49:53.637Z,94875.53
2022-09-17T04:52:21.970Z,94880.97
2022-09-17T04:54:50.411Z,94867.53
2022-09-17T04:57:18.807Z,94875.28
2022-09-17T04:59:47.196Z,94874.72
2022-09-17T05:02:15.573Z,94884.13
2022-09-17T05:04:44.303Z,94880.59
2022-09-17T05:07:14.344Z,94872.81
2022-09-17T05:09:43.178Z,94875.22
2022-09-17T05:12:11.567Z,94885.09
2022-09-17T05:14:39.960Z,94879.78
2022-09-17T05:17:08.340Z,94890.03
2022-09-17T05:19:37.027Z,94883.78
2022-09-17T05:22:05.450Z,94887.78
2022-09-17T05:24:39.358Z,94888.34
2022-09-17T05:27:07.940Z,94892.97
2022-09-17T05:29:36.936Z,94881.34
2022-09-17T05:32:05.966Z,94894.22
2022-09-17T05:34:34.782Z,94901.41
2022-09-17T05:37:03.274Z,94894.13
2022-09-17T05:39:31.617Z,94897.59
2022-09-17T05:42:01.329Z,94897.03
2022-09-17T05:44:29.735Z,94901.06
2022-09-17T05:46:58.208Z,94899.97
2022-09-17T05:49:26.942Z,94904.28
2022-09-17T05:51:55.336Z,94906.66
2022-09-17T05:54:23.697Z,94901.59
2022-09-17T05:56:55.299Z,94899.41
2022-09-17T05:59:25.664Z,94904.22
2022-09-17T06:01:54.519Z,94914.63
2022-09-17T06:04:23.413Z,94912.19
2022-09-17T06:06:53.358Z,94871.59
2022-09-17T06:09:22.103Z,94924.81
2022-09-17T06:11:50.552Z,94928.03
2022-09-17T06:14:18.927Z,94934.22
2022-09-17T06:16:48.785Z,94928.50
2022-09-17T06:19:17.127Z,94930.38
2022-09-17T06:21:45.547Z,94933.41
2022-09-17T06:24:14.383Z,94935.53
2022-09-17T06:26:42.837Z,94933.59
2022-09-17T06:29:11.280Z,94938.47
2022-09-17T06:31:41.251Z,94942.78
2022-09-17T06:34:11.689Z,94940.63
2022-09-17T06:36:40.173Z,94942.19
2022-09-17T06:39:09.713Z,94946.47
2022-09-17T06:41:38.146Z,94941.09
2022-09-17T06:44:06.597Z,94920.28
2022-09-17T06:46:35.047Z,94931.13
2022-09-17T06:49:03.424Z,94935.72
2022-09-17T06:51:33.104Z,94935.44
2022-09-17T06:54:02.695Z,94949.13
2022-09-17T06:56:30.988Z,94947.75
2022-09-17T06:58:59.389Z,94949.56
2022-09-17T07:01:28.178Z,94815.00
2022-09-17T07:03:56.576Z,94958.16
2022-09-17T07:06:24.992Z,94950.16
2022-09-17T07:08:54.717Z,94959.53
2022-09-17T07:11:23.400Z,94953.91
2022-09-17T07:13:51.900Z,94950.16
2022-09-17T07:16:20.425Z,94944.69
2022-09-17T07:18:48.909Z,94959.72
2022-09-17T07:21:17.240Z,94950.53
2022-09-17T07:23:46.030Z,94954.31
2022-09-17T07:26:17.116Z,94936.88
2022-09-17T07:28:46.054Z,94913.13
2022-09-17T07:31:16.681Z,94936.19
2022-09-17T07:33:46.951Z,94956.56
2022-09-17T07:36:18.226Z,94954.91
2022-09-17T07:38:47.326Z,94955.91
2022-09-17T07:41:19.484Z,94968.75
2022-09-17T07:43:47.912Z,94968.97
2022-09-17T07:46:18.119Z,94931.25
2022-09-17T07:48:46.769Z,94973.38
2022-09-17T07:51:19.587Z,94976.88
2022-09-17T07:53:49.095Z,94980.88
2022-09-17T07:56:18.851Z,94988.34
2022-09-17T07:58:47.335Z,94986.22
2022-09-17T08:01:17.478Z,94988.78
2022-09-17T08:03:50.464Z,94980.78
2022-09-17T08:06:21.916Z,94989.81
2022-09-17T08:08:51.020Z,94990.16
2022-09-17T08:11:55.210Z,94979.56
2022-09-17T08:14:14.049Z,94995.94
2022-09-17T08:16:42.731Z,94984.13
2022-09-17T08:19:11.396Z,94979.81
2022-09-17T08:21:40.416Z,94985.91
2022-09-17T08:24:09.112Z,94944.00
2022-09-17T08:26:39.325Z,94994.91
2022-09-17T08:29:08.355Z,94994.63
2022-09-17T08:31:37.373Z,94999.66
2022-09-17T08:34:11.051Z,95000.06
2022-09-17T08:36:39.948Z,94999.78
2022-09-17T08:39:08.672Z,95003.94
2022-09-17T08:41:54.182Z,95018.22
2022-09-17T08:44:32.036Z,95013.72
2022-09-17T08:47:06.580Z,95017.75
2022-09-17T08:49:37.727Z,95022.94
2022-09-17T08:52:32.976Z,94976.84
2022-09-17T08:55:09.251Z,94999.28
2022-09-17T08:57:44.687Z,95029.97
2022-09-17T09:00:16.317Z,95022.16
2022-09-17T09:03:01.509Z,95034.28
2022-09-17T09:05:33.635Z,95039.66
2022-09-17T09:08:07.784Z,95033.56
2022-09-17T09:10:47.808Z,95027.00
2022-09-17T09:13:21.575Z,95031.16
2022-09-17T09:15:53.015Z,95028.88
2022-09-17T09:18:23.536Z,95034.28
2022-09-17T09:20:55.676Z,95038.63
2022-09-17T09:23:34.852Z,95015.53
2022-09-17T09:26:18.082Z,95034.44
2022-09-17T09:29:12.928Z,95038.38
2022-09-17T09:32:00.183Z,95048.41
2022-09-17T09:34:30.694Z,95049.16
2022-09-17T09:37:13.255Z,95048.81
2022-09-17T09:39:46.103Z,95040.63
2022-09-17T09:42:21.507Z,95032.06
2022-09-17T09:44:51.716Z,95035.94
2022-09-17T09:47:35.858Z,94946.75
2022-09-17T09:50:21.264Z,95038.38
2022-09-17T09:53:03.732Z,95038.88
2022-09-17T09:55:49.707Z,95027.06
2022-09-17T09:58:26.262Z,95039.50
2022-09-17T10:00:56.155Z,95041.69
2022-09-17T10:03:26.076Z,95042.09
2022-09-17T10:06:00.020Z,95014.00
2022-09-17T10:08:29.644Z,95043.00
2022-09-17T10:11:01.724Z,95042.69
2022-09-17T10:13:32.910Z,95038.63
2022-09-17T10:16:18.488Z,95033.38
2022-09-17T10:18:47.192Z,95036.19
2022-09-17T10:21:21.464Z,94973.56
2022-09-17T10:23:51.533Z,95027.94
2022-09-17T10:26:26.066Z,95028.72
2022-09-17T10:28:57.078Z,95026.38
2022-09-17T10:31:27.645Z,95037.06
2022-09-17T10:34:00.115Z,95030.81
2022-09-17T10:36:41.599Z,95031.13
2022-09-17T10:39:45.184Z,95034.47
2022-09-17T10:42:16.777Z,95048.31
2022-09-17T10:44:53.572Z,95053.00
2022-09-17T10:47:29.228Z,95034.31
2022-09-17T10:50:01.494Z,95072.63
2022-09-17T10:52:34.048Z,95075.84
2022-09-17T10:55:19.627Z,95049.53
2022-09-17T10:58:05.482Z,95017.47
2022-09-17T11:00:46.148Z,95035.31
2022-09-17T11:03:47.058Z,95033.75
2022-09-17T11:06:39.185Z,95029.97
2022-09-17T11:09:21.263Z,95020.22
2022-09-17T11:12:02.156Z,95021.94
2022-09-17T11:14:52.290Z,95025.06
2022-09-17T11:17:43.200Z,95017.00
2022-09-17T11:20:26.559Z,95009.13
2022-09-17T11:23:09.379Z,95024.47
2022-09-17T11:25:49.206Z,95031.78
2022-09-17T11:28:35.340Z,95028.78
2022-09-17T11:31:15.166Z,95045.38
2022-09-17T11:34:10.112Z,95070.88
2022-09-17T11:36:49.431Z,95079.91
2022-09-17T11:39:24.301Z,95087.88
2022-09-17T11:41:55.423Z,95074.47
2022-09-17T11:44:28.155Z,95057.31
2022-09-17T11:47:04.569Z,95045.63
2022-09-17T11:49:41.040Z,95043.44
2022-09-17T11:52:15.343Z,95041.81
2022-09-17T11:54:51.567Z,95034.78
2022-09-17T11:57:23.378Z,95032.75
2022-09-17T11:59:55.771Z,95036.31
2022-09-17T12:02:30.048Z,95039.53
2022-09-17T12:05:03.166Z,95030.47
2022-09-17T12:07:47.559Z,95025.50
2022-09-17T12:10:35.845Z,95028.94
2022-09-17T12:13:14.993Z,95025.09
2022-09-17T12:15:52.963Z,95022.19
2022-09-17T12:18:35.122Z,95019.16
2022-09-17T12:21:06.707Z,95000.81
2022-09-17T12:23:41.872Z,94990.16
2022-09-17T12:26:23.945Z,95001.09
2022-09-17T12:29:01.720Z,94998.50
2022-09-17T12:31:40.043Z,94991.09
2022-09-17T12:34:28.272Z,94987.81
2022-09-17T12:37:06.160Z,94992.63
2022-09-17T12:40:04.028Z,95000.47
2022-09-17T12:43:07.743Z,94998.00
2022-09-17T12:45:52.224Z,95002.59
2022-09-17T12:48:56.312Z,94998.31
2022-09-17T12:51:45.197Z,95018.06
2022-09-17T12:54:25.960Z,94996.59
2022-09-17T12:57:03.012Z,94989.41
2022-09-17T12:59:34.433Z,94953.69
2022-09-17T13:02:16.154Z,94956.66
2022-09-17T13:05:10.439Z,94979.41
2022-09-17T13:08:07.833Z,94975.94
2022-09-17T13:11:06.436Z,94978.94
2022-09-17T13:13:45.088Z,94979.56
2022-09-17T13:16:22.893Z,94971.44
2022-09-17T13:19:17.612Z,94973.97
2022-09-17T13:21:54.701Z,94968.56
2022-09-17T13:24:26.020Z,94974.56
2022-09-17T13:26:56.447Z,94927.47
2022-09-17T13:30:01.188Z,94968.22
2022-09-17T13:32:49.905Z,94962.22
2022-09-17T13:35:51.132Z,94973.00
2022-09-17T13:38:23.967Z,94975.03
2022-09-17T13:40:53.536Z,94974.59
2022-09-17T13:43:28.186Z,94970.44
2022-09-17T13:46:15.998Z,94973.47
2022-09-17T13:48:56.036Z,94990.72
2022-09-17T13:51:54.777Z,94979.81
2022-09-17T13:54:25.915Z,94974.78
2022-09-17T13:57:10.820Z,94986.78
2022-09-17T13:59:40.463Z,94975.06
2022-09-17T14:02:37.555Z,94982.94
2022-09-17T14:05:32.500Z,94985.47
2022-09-17T14:08:31.236Z,94974.69
2022-09-17T14:11:24.179Z,94979.28
2022-09-17T14:13:53.741Z,94975.78
2022-09-17T14:16:50.554Z,94979.72
2022-09-17T14:19:31.681Z,94977.00
2022-09-17T14:22:03.909Z,94976.50
2022-09-17T14:24:38.620Z,94972.03
2022-09-17T14:27:16.356Z,94982.63
2022-09-17T14:30:03.978Z,94913.16
2022-09-17T14:32:39.468Z,94958.97
2022-09-17T14:35:20.161Z,94979.00
2022-09-17T14:37:55.087Z,94981.59
2022-09-17T14:40:26.486Z,94963.47
2022-09-17T14:42:57.423Z,94995.75
2022-09-17T14:45:29.547Z,94994.44
2022-09-17T14:48:29.603Z,94999.84
2022-09-17T14:51:15.490Z,94996.22
2022-09-17T14:53:44.208Z,94996.53
2022-09-17T14:56:16.656Z,94991.94
2022-09-17T14:58:50.114Z,94989.13
2022-09-17T15:01:25.161Z,94978.81
2022-09-17T15:04:11.983Z,94963.50
2022-09-17T15:06:40.692Z,94977.53
2022-09-17T15:09:16.347Z,94971.88
2022-09-17T15:11:49.664Z,94972.53
2022-09-17T15:14:21.229Z,94966.94
2022-09-17T15:16:51.899Z,94967.59
2022-09-17T15:19:25.648Z,94963.75
2022-09-17T15:21:55.211Z,94971.03
2022-09-17T15:24:34.329Z,94960.50
2022-09-17T15:27:11.154Z,94959.00
2022-09-17T15:29:42.940Z,94958.50
2022-09-17T15:32:14.276Z,94960.06
2022-09-17T15:34:42.847Z,94977.41
2022-09-17T15:37:20.532Z,94964.31
2022-09-17T15:39:52.269Z,94968.53
2022-09-17T15:42:28.495Z,94970.06
2022-09-17T15:45:09.231Z,94946.09
2022-09-17T15:47:53.796Z,94961.13
2022-09-17T15:50:24.916Z,94957.88
2022-09-17T15:53:00.541Z,94961.59
2022-09-17T15:55:34.362Z,94958.28
2022-09-17T15:58:07.333Z,94963.72
2022-09-17T16:00:35.741Z,94939.19
2022-09-17T16:03:54.832Z,94962.16
2022-09-17T16:06:40.743Z,94969.66
2022-09-17T16:09:41.967Z,94968.00
2022-09-17T16:12:14.427Z,94972.41
2022-09-17T16:14:49.983Z,94961.84
2022-09-17T16:17:33.237Z,94954.09
2022-09-17T16:20:06.011Z,94968.25
2022-09-17T16:22:34.968Z,94969.31
2022-09-17T16:25:03.563Z,94978.28
2022-09-17T16:27:37.307Z,94993.88
2022-09-17T16:30:09.548Z,94969.66
2022-09-17T16:32:38.345Z,94982.75
2022-09-17T16:35:07.285Z,94984.13
2022-09-17T16:37:35.735Z,94972.50
2022-09-17T16:40:04.320Z,94962.97
2022-09-17T16:42:33.074Z,94952.00
2022-09-17T16:45:03.632Z,94973.13
2022-09-17T16:47:38.792Z,94941.66
2022-09-17T16:50:09.247Z,94974.81
2022-09-17T16:52:37.962Z,94980.06
2022-09-17T16:55:07.345Z,94998.16
2022-09-17T16:57:36.151Z,95008.13
2022-09-17T17:00:06.783Z,95011.06
2022-09-17T17:02:36.660Z,95013.53
2022-09-17T17:05:05.339Z,94999.72
2022-09-17T17:07:33.881Z,94994.47
2022-09-17T17:10:02.271Z,94999.13
2022-09-17T17:12:31.106Z,94995.38
2022-09-17T17:14:59.516Z,94989.13
2022-09-17T17:17:27.971Z,94998.97
2022-09-17T17:19:57.736Z,94998.19
2022-09-17T17:22:26.969Z,94972.16
2022-09-17T17:24:55.703Z,94982.34
2022-09-17T17:27:24.383Z,94975.41
2022-09-17T17:29:53.046Z,94980.19
2022-09-17T17:32:21.328Z,94973.41
2022-09-17T17:34:50.516Z,94970.34
2022-09-17T17:37:22.056Z,94997.63
2022-09-17T17:39:51.227Z,94995.56
2022-09-17T17:42:19.652Z,94998.88
2022-09-17T17:44:48.756Z,94995.38
2022-09-17T17:47:17.132Z,94989.22
2022-09-17T17:49:45.749Z,94985.78
2022-09-17T17:52:14.497Z,94983.09
2022-09-17T17:54:44.277Z,94985.88
2022-09-17T17:57:12.667Z,94987.47
2022-09-17T17:59:41.219Z,94998.63
2022-09-17T18:02:11.104Z,95003.91
2022-09-17T18:04:39.548Z,95007.06
2022-09-17T18:07:09.199Z,95003.03
2022-09-17T18:09:37.595Z,95013.41
2022-09-17T18:12:08.172Z,95018.38
2022-09-17T18:14:36.600Z,95004.03
2022-09-17T18:17:05.240Z,95006.50
2022-09-17T18:19:33.559Z,95021.59
2022-09-17T18:22:01.981Z,95011.94
2022-09-17T18:24:30.344Z,94991.81
2022-09-17T18:26:58.983Z,95021.69
2022-09-17T18:29:29.287Z,95023.56
2022-09-17T18:31:57.660Z,95019.81
2022-09-17T18:34:26.143Z,95014.94
2022-09-17T18:36:54.892Z,95013.34
2022-09-17T18:39:56.796Z,95023.03
2022-09-17T18:42:11.751Z,95039.94
2022-09-17T18:44:41.564Z,95031.66
2022-09-17T18:47:09.994Z,95024.13
2022-09-17T18:49:38.315Z,95008.84
2022-09-17T18:52:06.679Z,95027.84
2022-09-17T18:54:35.355Z,95005.34
2022-09-17T18:57:03.744Z,94999.94
2022-09-17T18:59:32.557Z,95007.09
2022-09-17T19:02:02.504Z,95025.31
2022-09-17T19:04:30.920Z,95030.44
2022-09-17T19:06:59.277Z,95025.09
2022-09-17T19:09:27.944Z,95026.47
2022-09-17T19:11:56.290Z,95007.41
2022-09-17T19:14:24.780Z,95036.41
2022-09-17T19:16:55.362Z,95024.59
2022-09-17T19:19:25.180Z,95040.97
2022-09-17T19:21:53.509Z,95026.44
2022-09-17T19:24:21.853Z,95038.53
2022-09-17T19:26:51.022Z,95043.09
2022-09-17T19:29:19.623Z,95038.56
2022-09-17T19:31:48.019Z,95046.63
2022-09-17T19:34:16.440Z,95055.16
2022-09-17T19:36:46.220Z,95042.28
2022-09-17T19:39:14.544Z,95047.94
2022-09-17T19:41:42.928Z,95036.31
2022-09-17T19:44:12.073Z,95034.16
2022-09-17T19:46:41.333Z,95042.53
2022-09-17T19:49:11.007Z,95047.38
2022-09-17T19:51:40.059Z,95053.53
2022-09-17T19:54:10.940Z,95063.44
2022-09-17T19:56:39.303Z,95056.53
2022-09-17T19:59:09.210Z,95065.09
2022-09-17T20:01:38.972Z,95065.84
2022-09-17T20:04:09.020Z,95062.19
2022-09-17T20:06:38.967Z,95038.09
2022-09-17T20:09:08.993Z,95060.38
2022-09-17T20:11:42.278Z,95072.47
2022-09-17T20:14:13.167Z,95049.91
2022-09-17T20:16:44.163Z,95076.41
2022-09-17T20:19:17.034Z,95070.75
2022-09-17T20:21:47.928Z,95071.38
2022-09-17T20:24:17.860Z,95058.97
2022-09-17T20:26:49.749Z,95060.91
2022-09-17T20:29:19.428Z,95063.59
2022-09-17T20:31:49.334Z,95052.56
2022-09-17T20:34:19.230Z,95075.66
2022-09-17T20:36:49.101Z,95026.84
2022-09-17T20:39:22.815Z,95059.28
2022-09-17T20:41:53.827Z,95064.41
2022-09-17T20:44:23.365Z,95063.88
2022-09-17T20:46:53.091Z,95068.69
2022-09-17T20:49:23.004Z,95074.38
2022-09-17T20:51:52.803Z,95079.72
2022-09-17T20:54:22.724Z,95059.56
2022-09-17T20:56:56.192Z,95074.88
2022-09-17T20:59:30.915Z,95077.28
2022-09-17T21:02:00.126Z,95067.91
2022-09-17T21:04:28.655Z,95052.34
2022-09-17T21:06:57.071Z,95080.78
2022-09-17T21:09:25.419Z,95070.84
2022-09-17T21:11:55.804Z,95069.50
2022-09-17T21:14:25.326Z,95084.28
2022-09-17T21:16:55.927Z,95072.50
2022-09-17T21:19:25.534Z,95073.03
2022-09-17T21:21:54.781Z,95076.81
2022-09-17T21:24:23.588Z,95011.94
2022-09-17T21:26:54.264Z,95058.56
2022-09-17T21:29:24.136Z,95080.53
2022-09-17T21:31:53.177Z,95080.25
2022-09-17T21:34:22.106Z,95088.56
2022-09-17T21:36:51.649Z,95086.66
2022-09-17T21:39:20.418Z,95095.25
2022-09-17T21:41:49.360Z,95062.06
2022-09-17T21:44:17.703Z,95098.25
2022-09-17T21:46:48.751Z,95100.09
2022-09-17T21:49:18.532Z,95091.28
2022-09-17T21:51:46.923Z,95097.13
2022-09-17T21:54:17.178Z,95094.75
2022-09-17T21:56:46.463Z,95096.09
2022-09-17T21:59:16.354Z,95075.97
2022-09-17T22:01:47.608Z,95086.41
2022-09-17T22:04:18.018Z,95088.56
2022-09-17T22:06:47.640Z,95042.50
2022-09-17T22:09:18.917Z,95086.97
2022-09-17T22:11:47.701Z,95079.72
2022-09-17T22:14:19.757Z,95089.09
2022-09-17T22:16:52.710Z,95087.75
2022-09-17T22:19:22.093Z,95082.66
2022-09-17T22:21:52.079Z,95092.34
2022-09-17T22:24:22.114Z,95050.81
2022-09-17T22:26:56.892Z,95032.59
2022-09-17T22:29:27.437Z,95089.66
2022-09-17T22:31:57.497Z,95087.53
2022-09-17T22:34:26.856Z,95084.81
2022-09-17T22:36:55.331Z,95085.38
2022-09-17T22:39:24.051Z,95094.25
2022-09-17T22:41:52.545Z,95082.66
2022-09-17T22:44:21.948Z,94990.56
2022-09-17T22:46:51.983Z,95076.81
2022-09-17T22:49:21.995Z,95081.34
2022-09-17T22:51:50.320Z,95083.78
2022-09-17T22:54:20.481Z,95094.25
2022-09-17T22:56:49.608Z,95091.88
2022-09-17T22:59:19.151Z,95098.81
2022-09-17T23:01:48.194Z,95100.16
2022-09-17T23:04:16.596Z,95100.72
2022-09-17T23:06:46.379Z,95100.19
2022-09-17T23:09:15.367Z,95104.72
2022-09-17T23:11:45.215Z,95103.94
2022-09-17T23:14:14.811Z,95102.31
2022-09-17T23:16:44.818Z,95104.19
2022-09-17T23:19:13.640Z,95113.31
2022-09-17T23:21:42.447Z,95107.94
2022-09-17T23:24:17.910Z,95114.09
2022-09-17T23:26:46.329Z,94989.50
2022-09-17T23:29:15.328Z,95136.16
2022-09-17T23:31:44.394Z,95116.53
2022-09-17T23:34:12.844Z,95119.50
2022-09-17T23:36:41.419Z,95106.88
2022-09-17T23:39:12.732Z,95048.75
2022-09-17T23:41:44.908Z,95113.34
2022-09-17T23:44:15.988Z,95112.25
2022-09-17T23:46:46.630Z,95045.00
2022-09-17T23:49:15.973Z,95115.47
2022-09-17T23:51:44.563Z,95111.69
2022-09-17T23:54:14.771Z,95117.63
2022-09-17T23:56:43.305Z,95103.41
2022-09-17T23:59:12.422Z,95115.75
